Time;durP1;ratioP1;P1;durP2;ratioP2;P2;SDS_P1;SDS_P2;PMS_P1;PMS_P2;Temp;Humidity;BMP_temperature;BMP_pressure;BME280_temperature;BME280_humidity;BME280_pressure;Samples;Min_cycle;Max_cycle;Signal;HPM_P1;HPM_P2
2021/09/08 00:01:21;;;;;;;22.37;14.55;;;;;;;;;;4333912;33;20170;-85
2021/09/08 00:03:49;;;;;;;19.35;13.98;;;;;;;;;;4348230;33;20147;-86
2021/09/08 00:06:14;;;;;;;20.12;14.60;;;;;;;;;;4346967;33;20182;-86
2021/09/08 00:08:39;;;;;;;21.58;15.13;;;;;;;;;;4333508;33;20585;-85
2021/09/08 00:11:05;;;;;;;21.73;14.77;;;;;;;;;;4347327;33;20146;-86
2021/09/08 00:13:33;;;;;;;21.23;14.05;;;;;;;;;;4334009;33;20196;-85
2021/09/08 00:16:07;;;;;;;22.40;15.00;;;;;;;;;;4347695;33;20143;-85
2021/09/08 00:18:32;;;;;;;20.55;14.77;;;;;;;;;;4349324;33;20205;-86
2021/09/08 00:20:57;;;;;;;22.33;15.93;;;;;;;;;;4349360;33;20151;-85
2021/09/08 00:23:26;;;;;;;23.03;15.90;;;;;;;;;;4348505;33;20181;-86
2021/09/08 00:26:00;;;;;;;18.55;14.43;;;;;;;;;;4349091;33;20640;-85
2021/09/08 00:28:25;;;;;;;23.30;15.55;;;;;;;;;;4348375;33;20131;-85
2021/09/08 00:30:56;;;;;;;28.83;16.15;;;;;;;;;;4350142;33;20170;-85
2021/09/08 00:33:26;;;;;;;21.50;15.05;;;;;;;;;;4349805;33;20608;-86
2021/09/08 00:36:02;;;;;;;23.60;15.13;;;;;;;;;;4334482;33;20539;-85
2021/09/08 00:38:30;;;;;;;20.37;14.68;;;;;;;;;;4334400;33;20167;-86
2021/09/08 00:40:59;;;;;;;24.37;16.70;;;;;;;;;;4349016;33;20482;-86
2021/09/08 00:43:32;;;;;;;21.58;15.13;;;;;;;;;;4333577;33;20667;-85
2021/09/08 00:46:06;;;;;;;22.33;15.75;;;;;;;;;;4346643;33;20140;-86
2021/09/08 00:48:33;;;;;;;21.62;15.32;;;;;;;;;;4346865;33;20531;-85
2021/09/08 00:51:07;;;;;;;22.73;15.65;;;;;;;;;;4333794;33;20267;-85
2021/09/08 00:53:41;;;;;;;21.95;15.88;;;;;;;;;;4347120;33;20184;-85
2021/09/08 00:56:14;;;;;;;23.73;16.08;;;;;;;;;;4333764;33;20197;-85
2021/09/08 00:58:42;;;;;;;20.85;14.93;;;;;;;;;;4333637;33;20561;-85
2021/09/08 01:01:13;;;;;;;24.17;15.90;;;;;;;;;;4347118;33;20544;-85
2021/09/08 01:03:38;;;;;;;26.17;17.23;;;;;;;;;;4347702;33;20568;-85
2021/09/08 01:06:03;;;;;;;26.17;16.87;;;;;;;;;;4346383;33;20171;-85
2021/09/08 01:08:29;;;;;;;21.15;15.55;;;;;;;;;;4333362;33;20316;-85
2021/09/08 01:10:57;;;;;;;28.55;17.50;;;;;;;;;;4335714;33;20202;-84
2021/09/08 01:13:35;;;;;;;23.55;16.12;;;;;;;;;;4355775;33;20139;-85
2021/09/08 01:16:01;;;;;;;27.67;16.35;;;;;;;;;;4351464;33;20167;-86
2021/09/08 01:18:27;;;;;;;21.85;15.48;;;;;;;;;;4346784;33;20140;-85
2021/09/08 01:21:01;;;;;;;26.92;16.02;;;;;;;;;;4346502;33;20205;-85
2021/09/08 01:23:27;;;;;;;27.73;17.58;;;;;;;;;;4333688;33;20549;-85
2021/09/08 01:26:02;;;;;;;22.90;15.70;;;;;;;;;;4338532;33;20179;-85
2021/09/08 01:28:33;;;;;;;22.67;15.95;;;;;;;;;;4358859;33;20163;-85
2021/09/08 01:30:58;;;;;;;24.48;16.35;;;;;;;;;;4358815;33;20135;-86
2021/09/08 01:33:24;;;;;;;24.65;15.88;;;;;;;;;;4359134;33;20140;-85
2021/09/08 01:35:52;;;;;;;24.40;16.67;;;;;;;;;;4358695;33;20163;-86
2021/09/08 01:38:20;;;;;;;24.25;16.52;;;;;;;;;;4335314;33;20630;-85
2021/09/08 01:40:48;;;;;;;23.98;15.93;;;;;;;;;;4346940;33;20162;-85
2021/09/08 01:43:16;;;;;;;21.98;15.07;;;;;;;;;;4332126;33;20663;-85
2021/09/08 01:45:44;;;;;;;23.65;16.23;;;;;;;;;;4346683;33;20580;-85
2021/09/08 01:48:10;;;;;;;23.17;15.05;;;;;;;;;;4345629;33;20194;-85
2021/09/08 01:50:43;;;;;;;26.45;16.35;;;;;;;;;;4346026;33;20135;-85
2021/09/08 01:53:13;;;;;;;27.40;16.55;;;;;;;;;;4346366;33;20135;-85
2021/09/08 01:55:38;;;;;;;27.20;17.65;;;;;;;;;;4332042;33;20189;-85
2021/09/08 01:58:15;;;;;;;26.62;17.83;;;;;;;;;;4345734;33;20139;-85
2021/09/08 02:00:44;;;;;;;24.08;16.10;;;;;;;;;;4332796;33;20194;-85
2021/09/08 02:03:09;;;;;;;25.35;16.67;;;;;;;;;;4346122;33;20489;-85
2021/09/08 02:05:35;;;;;;;24.95;16.52;;;;;;;;;;4346459;33;20144;-85
2021/09/08 02:08:00;;;;;;;26.20;17.48;;;;;;;;;;4332430;33;20191;-86
2021/09/08 02:10:31;;;;;;;23.10;16.50;;;;;;;;;;4332235;33;20181;-85
2021/09/08 02:12:58;;;;;;;27.67;17.58;;;;;;;;;;4320860;33;20186;-85
2021/09/08 02:15:24;;;;;;;25.62;16.80;;;;;;;;;;4332056;33;20704;-85
2021/09/08 02:17:55;;;;;;;26.48;17.80;;;;;;;;;;4345766;33;20148;-86
2021/09/08 02:20:20;;;;;;;25.35;17.48;;;;;;;;;;4346072;33;20136;-85
2021/09/08 02:22:45;;;;;;;26.90;17.25;;;;;;;;;;4332128;33;20198;-85
2021/09/08 02:25:20;;;;;;;29.90;18.58;;;;;;;;;;4332269;33;20184;-85
2021/09/08 02:27:50;;;;;;;24.23;16.98;;;;;;;;;;4346050;33;20147;-85
2021/09/08 02:30:18;;;;;;;29.52;19.08;;;;;;;;;;4346082;33;20139;-85
2021/09/08 02:32:46;;;;;;;28.27;17.95;;;;;;;;;;4345954;33;20194;-85
2021/09/08 02:35:12;;;;;;;29.40;18.12;;;;;;;;;;4345839;33;20584;-85
2021/09/08 02:37:45;;;;;;;28.50;18.58;;;;;;;;;;4320309;33;20164;-85
2021/09/08 02:40:10;;;;;;;30.25;19.02;;;;;;;;;;4332922;33;20162;-85
2021/09/08 02:42:35;;;;;;;28.87;18.12;;;;;;;;;;4332182;33;20215;-85
2021/09/08 02:45:01;;;;;;;29.12;18.70;;;;;;;;;;4345509;33;20172;-85
2021/09/08 02:47:26;;;;;;;27.58;19.35;;;;;;;;;;4331970;33;20182;-86
2021/09/08 02:49:52;;;;;;;29.77;18.40;;;;;;;;;;4345452;33;20163;-86
2021/09/08 02:52:17;;;;;;;29.60;18.58;;;;;;;;;;4345386;33;20226;-86
2021/09/08 02:54:45;;;;;;;25.60;17.20;;;;;;;;;;4345777;33;20132;-86
2021/09/08 02:57:10;;;;;;;26.98;17.55;;;;;;;;;;4331703;33;20321;-86
2021/09/08 02:59:35;;;;;;;28.25;18.80;;;;;;;;;;4345646;33;20181;-86
2021/09/08 03:02:11;;;;;;;29.15;18.02;;;;;;;;;;4345868;33;20158;-86
2021/09/08 03:04:37;;;;;;;32.88;18.70;;;;;;;;;;4346290;33;20148;-86
2021/09/08 03:07:02;;;;;;;25.70;17.77;;;;;;;;;;4345724;33;20162;-85
2021/09/08 03:09:27;;;;;;;26.58;17.60;;;;;;;;;;4332997;33;20171;-86
2021/09/08 03:11:53;;;;;;;29.60;19.45;;;;;;;;;;4348361;33;20193;-85
2021/09/08 03:14:20;;;;;;;27.13;17.70;;;;;;;;;;4348739;33;20158;-85
2021/09/08 03:16:48;;;;;;;28.55;18.58;;;;;;;;;;4334775;33;20193;-85
2021/09/08 03:19:13;;;;;;;28.73;18.85;;;;;;;;;;4334582;33;20163;-86
2021/09/08 03:21:39;;;;;;;30.12;18.42;;;;;;;;;;4348286;33;20166;-86
2021/09/08 03:24:04;;;;;;;31.15;20.23;;;;;;;;;;4348765;33;20140;-85
2021/09/08 03:26:29;;;;;;;25.70;17.73;;;;;;;;;;4347967;33;20135;-85
2021/09/08 03:28:54;;;;;;;25.42;17.58;;;;;;;;;;4334427;33;20226;-85
2021/09/08 03:31:23;;;;;;;29.15;19.10;;;;;;;;;;4348725;33;20179;-85
2021/09/08 03:33:48;;;;;;;30.50;18.67;;;;;;;;;;4348529;33;20168;-85
2021/09/08 03:36:16;;;;;;;27.30;18.05;;;;;;;;;;4335496;33;20233;-85
2021/09/08 03:38:42;;;;;;;28.25;19.50;;;;;;;;;;4350695;33;20572;-85
2021/09/08 03:41:07;;;;;;;28.25;18.40;;;;;;;;;;4349696;33;20195;-85
2021/09/08 03:43:33;;;;;;;28.12;18.77;;;;;;;;;;4336578;33;20262;-85
2021/09/08 03:45:58;;;;;;;30.48;19.37;;;;;;;;;;4350150;33;20213;-85
2021/09/08 03:48:24;;;;;;;26.80;17.83;;;;;;;;;;4349392;33;20189;-85
2021/09/08 03:50:52;;;;;;;29.37;19.37;;;;;;;;;;4349868;33;20182;-84
2021/09/08 03:53:20;;;;;;;30.60;19.85;;;;;;;;;;4349063;33;20162;-85
2021/09/08 03:55:48;;;;;;;28.80;18.85;;;;;;;;;;4335037;33;20231;-85
2021/09/08 03:58:16;;;;;;;28.12;18.65;;;;;;;;;;4333961;33;20171;-88
2021/09/08 04:00:44;;;;;;;27.92;19.30;;;;;;;;;;4348088;33;20171;-85
2021/09/08 04:03:12;;;;;;;30.80;19.62;;;;;;;;;;4347343;33;20136;-85
2021/09/08 04:05:37;;;;;;;27.13;18.05;;;;;;;;;;4347476;33;20152;-84
2021/09/08 04:08:03;;;;;;;29.15;19.52;;;;;;;;;;4347578;33;20135;-85
2021/09/08 04:10:28;;;;;;;32.25;19.95;;;;;;;;;;4347548;33;20599;-85
2021/09/08 04:12:55;;;;;;;29.17;19.37;;;;;;;;;;4347673;33;20557;-86
2021/09/08 04:15:22;;;;;;;30.58;20.02;;;;;;;;;;4347193;33;20194;-85
2021/09/08 04:17:48;;;;;;;31.62;19.85;;;;;;;;;;4333714;33;20186;-85
2021/09/08 04:20:13;;;;;;;33.47;20.67;;;;;;;;;;4347241;33;20139;-84
2021/09/08 04:22:38;;;;;;;28.90;19.17;;;;;;;;;;4334041;33;20172;-84
2021/09/08 04:25:04;;;;;;;29.48;19.73;;;;;;;;;;4346990;33;20136;-86
2021/09/08 04:27:29;;;;;;;31.60;20.20;;;;;;;;;;4347359;33;20194;-85
2021/09/08 04:29:55;;;;;;;31.12;19.92;;;;;;;;;;4347431;33;20136;-86
2021/09/08 04:32:20;;;;;;;29.90;20.17;;;;;;;;;;4347095;33;20144;-85
2021/09/08 04:34:45;;;;;;;33.33;20.60;;;;;;;;;;4333546;33;20171;-85
2021/09/08 04:37:10;;;;;;;32.45;20.20;;;;;;;;;;4347300;33;20476;-84
2021/09/08 04:39:36;;;;;;;32.45;21.45;;;;;;;;;;4347189;33;20206;-85
2021/09/08 04:42:01;;;;;;;31.77;21.58;;;;;;;;;;4347080;33;20207;-84
2021/09/08 04:44:26;;;;;;;34.50;21.00;;;;;;;;;;4347168;33;20165;-85
2021/09/08 04:46:52;;;;;;;33.60;20.77;;;;;;;;;;4347142;33;20143;-83
2021/09/08 04:49:17;;;;;;;34.58;21.33;;;;;;;;;;4347127;33;20597;-85
2021/09/08 04:51:45;;;;;;;30.60;20.60;;;;;;;;;;4347314;33;20170;-84
2021/09/08 04:54:12;;;;;;;32.25;22.17;;;;;;;;;;4347194;33;20597;-85
2021/09/08 04:56:43;;;;;;;32.70;21.10;;;;;;;;;;4346785;33;20140;-84
2021/09/08 04:59:08;;;;;;;36.88;21.67;;;;;;;;;;4347260;33;20155;-85
2021/09/08 05:01:34;;;;;;;28.87;19.02;;;;;;;;;;4346593;33;20201;-84
2021/09/08 05:03:59;;;;;;;33.38;20.75;;;;;;;;;;4333312;33;20555;-85
2021/09/08 05:06:24;;;;;;;32.85;20.95;;;;;;;;;;4341746;33;20183;-86
2021/09/08 05:08:50;;;;;;;33.00;20.60;;;;;;;;;;4351502;33;20155;-84
2021/09/08 05:11:18;;;;;;;32.42;21.70;;;;;;;;;;4333865;33;20167;-84
2021/09/08 05:13:46;;;;;;;33.05;20.77;;;;;;;;;;4346962;33;20147;-84
2021/09/08 05:16:11;;;;;;;30.00;20.20;;;;;;;;;;4346415;33;20197;-85
2021/09/08 05:18:36;;;;;;;35.17;22.42;;;;;;;;;;4346267;33;20140;-85
2021/09/08 05:21:02;;;;;;;35.75;22.77;;;;;;;;;;4333244;33;20194;-84
2021/09/08 05:23:27;;;;;;;41.28;23.38;;;;;;;;;;4346629;33;20182;-83
2021/09/08 05:25:52;;;;;;;39.70;23.27;;;;;;;;;;4346475;33;20155;-84
2021/09/08 05:28:19;;;;;;;34.70;21.15;;;;;;;;;;4346118;33;20603;-84
2021/09/08 05:30:44;;;;;;;32.20;21.17;;;;;;;;;;4346182;33;20144;-84
2021/09/08 05:33:10;;;;;;;37.63;22.27;;;;;;;;;;4345782;33;20132;-82
2021/09/08 05:35:38;;;;;;;36.10;22.27;;;;;;;;;;4346211;33;20619;-83
2021/09/08 05:38:03;;;;;;;34.70;22.08;;;;;;;;;;4346078;33;20139;-83
2021/09/08 05:40:29;;;;;;;36.13;22.37;;;;;;;;;;4346082;33;20140;-84
2021/09/08 05:42:54;;;;;;;38.83;22.73;;;;;;;;;;4345892;33;20181;-83
2021/09/08 05:45:20;;;;;;;33.60;21.55;;;;;;;;;;4332327;33;20230;-84
2021/09/08 05:47:45;;;;;;;33.45;20.37;;;;;;;;;;4345544;33;20215;-82
2021/09/08 05:50:11;;;;;;;36.00;22.85;;;;;;;;;;4346575;33;20186;-83
2021/09/08 05:52:36;;;;;;;35.30;22.33;;;;;;;;;;4345864;33;20178;-83
2021/09/08 05:55:12;;;;;;;32.22;21.80;;;;;;;;;;4346010;33;20139;-84
2021/09/08 05:57:40;;;;;;;36.55;21.25;;;;;;;;;;4332202;33;20600;-83
2021/09/08 06:00:06;;;;;;;37.42;24.70;;;;;;;;;;4346045;33;20167;-84
2021/09/08 06:02:31;;;;;;;35.47;22.42;;;;;;;;;;4345578;33;20497;-83
2021/09/08 06:04:56;;;;;;;37.25;22.50;;;;;;;;;;4345558;33;20135;-83
2021/09/08 06:07:21;;;;;;;33.28;21.20;;;;;;;;;;4332077;33;20167;-84
2021/09/08 06:09:56;;;;;;;32.20;22.13;;;;;;;;;;4345703;33;20163;-83
2021/09/08 06:12:25;;;;;;;36.08;23.40;;;;;;;;;;4345766;33;20178;-84
2021/09/08 06:14:50;;;;;;;34.88;21.12;;;;;;;;;;4332296;33;20218;-83
2021/09/08 06:17:16;;;;;;;36.10;22.42;;;;;;;;;;4345792;33;20190;-84
2021/09/08 06:19:41;;;;;;;34.25;21.73;;;;;;;;;;4345716;33;20545;-82
2021/09/08 06:22:06;;;;;;;30.83;20.45;;;;;;;;;;4345482;33;20178;-82
2021/09/08 06:24:32;;;;;;;36.40;21.50;;;;;;;;;;4345815;33;20205;-84
2021/09/08 06:26:59;;;;;;;34.70;22.13;;;;;;;;;;4345776;33;20139;-83
2021/09/08 06:29:24;;;;;;;29.48;19.92;;;;;;;;;;4345722;33;20190;-83
2021/09/08 06:31:50;;;;;;;33.53;20.83;;;;;;;;;;4332769;33;20164;-83
2021/09/08 06:34:24;;;;;;;33.70;21.15;;;;;;;;;;4345841;33;20173;-82
2021/09/08 06:36:53;;;;;;;28.15;19.62;;;;;;;;;;4346158;33;20143;-83
2021/09/08 06:39:22;;;;;;;32.33;21.48;;;;;;;;;;4332521;33;20234;-83
2021/09/08 06:41:48;;;;;;;33.70;21.80;;;;;;;;;;4350006;33;20190;-83
2021/09/08 06:44:13;;;;;;;32.63;21.85;;;;;;;;;;4353387;33;20142;-84
2021/09/08 06:46:39;;;;;;;32.63;19.67;;;;;;;;;;4338324;33;20186;-83
2021/09/08 06:49:04;;;;;;;29.75;20.33;;;;;;;;;;4338192;33;20576;-82
2021/09/08 06:51:29;;;;;;;34.90;20.50;;;;;;;;;;4352004;33;20197;-84
2021/09/08 06:53:55;;;;;;;42.17;21.75;;;;;;;;;;4338006;33;20163;-82
2021/09/08 06:56:20;;;;;;;34.50;21.60;;;;;;;;;;4350492;33;20584;-84
2021/09/08 06:58:45;;;;;;;35.78;22.00;;;;;;;;;;4351244;33;20159;-83
2021/09/08 07:01:10;;;;;;;30.17;19.75;;;;;;;;;;4338833;33;20194;-84
2021/09/08 07:03:37;;;;;;;32.60;22.17;;;;;;;;;;4350087;33;20139;-83
2021/09/08 07:06:02;;;;;;;39.67;22.65;;;;;;;;;;4336325;33;20167;-83
2021/09/08 07:08:28;;;;;;;36.58;21.65;;;;;;;;;;4350648;33;20198;-84
2021/09/08 07:10:59;;;;;;;32.15;21.10;;;;;;;;;;4349069;33;20136;-84
2021/09/08 07:13:25;;;;;;;32.92;20.45;;;;;;;;;;4349565;33;20139;-84
2021/09/08 07:15:50;;;;;;;33.58;21.62;;;;;;;;;;4348889;33;20143;-85
2021/09/08 07:18:15;;;;;;;36.40;21.98;;;;;;;;;;4349451;33;20550;-85
2021/09/08 07:20:41;;;;;;;32.60;21.62;;;;;;;;;;4350937;33;20214;-86
2021/09/08 07:23:06;;;;;;;35.00;21.90;;;;;;;;;;4337803;33;20159;-86
2021/09/08 07:25:34;;;;;;;32.47;21.55;;;;;;;;;;4349508;33;20135;-85
2021/09/08 07:28:03;;;;;;;33.60;21.00;;;;;;;;;;4349887;33;20135;-86
2021/09/08 07:30:28;;;;;;;32.28;21.67;;;;;;;;;;4350180;33;20174;-86
2021/09/08 07:32:53;;;;;;;29.98;20.65;;;;;;;;;;4335329;33;20171;-84
2021/09/08 07:35:18;;;;;;;34.88;21.52;;;;;;;;;;4347917;33;20135;-83
2021/09/08 07:37:44;;;;;;;33.20;20.42;;;;;;;;;;4334537;33;20478;-83
2021/09/08 07:40:11;;;;;;;31.00;20.40;;;;;;;;;;4348310;33;20193;-83
2021/09/08 07:42:37;;;;;;;36.05;19.70;;;;;;;;;;4348561;33;20135;-84
2021/09/08 07:45:03;;;;;;;39.97;22.08;;;;;;;;;;4348512;33;20211;-83
2021/09/08 07:47:29;;;;;;;33.30;19.85;;;;;;;;;;4348461;33;20239;-83
2021/09/08 07:49:54;;;;;;;30.45;20.75;;;;;;;;;;4347766;33;20156;-83
2021/09/08 07:52:20;;;;;;;30.55;19.20;;;;;;;;;;4334210;33;20526;-83
2021/09/08 07:54:45;;;;;;;30.95;19.83;;;;;;;;;;4334195;33;20226;-84
2021/09/08 07:57:13;;;;;;;40.47;20.58;;;;;;;;;;4347728;33;20167;-84
2021/09/08 07:59:39;;;;;;;32.78;20.52;;;;;;;;;;4347941;33;20158;-82
2021/09/08 08:02:04;;;;;;;42.88;20.80;;;;;;;;;;4347802;33;20587;-84
2021/09/08 08:04:29;;;;;;;38.50;19.48;;;;;;;;;;4348109;33;20460;-84
2021/09/08 08:07:12;;;;;;;32.75;19.90;;;;;;;;;;4347602;33;20504;-83
2021/09/08 08:09:46;;;;;;;29.12;18.45;;;;;;;;;;4348206;33;20530;-83
2021/09/08 08:12:17;;;;;;;32.13;19.12;;;;;;;;;;4347837;33;20205;-84
2021/09/08 08:14:45;;;;;;;28.98;19.52;;;;;;;;;;4334385;33;20155;-83
2021/09/08 08:17:10;;;;;;;27.13;18.23;;;;;;;;;;4348058;33;20136;-83
2021/09/08 08:19:36;;;;;;;31.55;19.98;;;;;;;;;;4347888;33;20197;-84
2021/09/08 08:22:04;;;;;;;29.75;18.77;;;;;;;;;;4347615;33;20170;-82
2021/09/08 08:24:29;;;;;;;28.85;19.10;;;;;;;;;;4348484;33;20163;-82
2021/09/08 08:26:57;;;;;;;30.17;19.33;;;;;;;;;;4354169;33;20147;-83
2021/09/08 08:29:25;;;;;;;33.08;20.17;;;;;;;;;;4350918;33;20593;-83
2021/09/08 08:31:50;;;;;;;26.27;18.58;;;;;;;;;;4336734;33;20254;-83
2021/09/08 08:34:15;;;;;;;26.80;19.48;;;;;;;;;;4337235;33;20163;-82
2021/09/08 08:36:41;;;;;;;45.25;20.17;;;;;;;;;;4347404;33;20202;-83
2021/09/08 08:39:09;;;;;;;30.33;19.15;;;;;;;;;;4347487;33;20136;-82
2021/09/08 08:41:37;;;;;;;26.95;19.05;;;;;;;;;;4333805;33;20507;-83
2021/09/08 08:44:06;;;;;;;29.00;18.37;;;;;;;;;;4333533;33;20222;-83
2021/09/08 08:46:31;;;;;;;25.50;17.90;;;;;;;;;;4346836;33;20198;-83
2021/09/08 08:48:56;;;;;;;28.55;18.55;;;;;;;;;;4346731;33;20167;-83
2021/09/08 08:51:24;;;;;;;25.77;17.62;;;;;;;;;;4346404;33;20166;-83
2021/09/08 08:53:49;;;;;;;28.23;18.67;;;;;;;;;;4347328;33;20136;-81
2021/09/08 08:56:15;;;;;;;27.85;18.83;;;;;;;;;;4347035;33;20136;-83
2021/09/08 08:58:40;;;;;;;28.65;17.92;;;;;;;;;;4347785;33;20136;-83
2021/09/08 09:01:15;;;;;;;26.52;17.58;;;;;;;;;;4337082;33;20189;-85
2021/09/08 09:03:57;;;;;;;24.98;16.05;;;;;;;;;;4348266;33;20200;-82
2021/09/08 09:06:25;;;;;;;25.25;18.05;;;;;;;;;;4346905;33;20175;-84
2021/09/08 09:08:57;;;;;;;26.12;17.23;;;;;;;;;;4346299;33;20132;-84
2021/09/08 09:11:23;;;;;;;23.60;17.30;;;;;;;;;;4333166;33;20289;-84
2021/09/08 09:13:49;;;;;;;25.92;17.80;;;;;;;;;;4332998;33;20532;-84
2021/09/08 09:16:14;;;;;;;24.83;18.02;;;;;;;;;;4346444;33;20144;-84
2021/09/08 09:18:42;;;;;;;28.35;18.62;;;;;;;;;;4347151;33;20151;-85
2021/09/08 09:21:18;;;;;;;25.08;17.55;;;;;;;;;;4332782;33;20167;-84
2021/09/08 09:23:48;;;;;;;26.65;18.75;;;;;;;;;;4346936;33;20157;-85
2021/09/08 09:26:19;;;;;;;26.40;18.20;;;;;;;;;;4332843;33;20214;-86
2021/09/08 09:28:44;;;;;;;22.83;16.80;;;;;;;;;;4332666;33;20222;-83
2021/09/08 09:31:13;;;;;;;23.65;16.37;;;;;;;;;;4346707;33;20162;-83
2021/09/08 09:33:43;;;;;;;26.98;16.87;;;;;;;;;;4346090;33;20166;-82
2021/09/08 09:36:19;;;;;;;27.60;17.42;;;;;;;;;;4346129;33;20589;-84
2021/09/08 09:38:45;;;;;;;28.25;16.30;;;;;;;;;;4345789;33;20143;-84
2021/09/08 09:41:11;;;;;;;24.77;16.52;;;;;;;;;;4333167;33;20155;-84
2021/09/08 09:43:45;;;;;;;22.52;16.25;;;;;;;;;;4345926;33;20162;-85
2021/09/08 09:46:12;;;;;;;24.95;16.58;;;;;;;;;;4332923;33;20221;-82
2021/09/08 09:48:46;;;;;;;26.17;16.40;;;;;;;;;;4346432;33;20190;-83
2021/09/08 09:51:40;;;;;;;24.12;15.80;;;;;;;;;;4346236;33;20622;-83
2021/09/08 09:54:05;;;;;;;25.40;17.23;;;;;;;;;;4337571;33;20139;-84
2021/09/08 09:56:33;;;;;;;21.62;15.98;;;;;;;;;;4345947;33;20179;-83
2021/09/08 09:58:58;;;;;;;19.98;13.48;;;;;;;;;;4345442;33;20214;-83
2021/09/08 10:01:24;;;;;;;22.83;13.73;;;;;;;;;;4346082;33;20135;-83
2021/09/08 10:03:49;;;;;;;26.37;15.80;;;;;;;;;;4332229;33;20193;-84
2021/09/08 10:06:15;;;;;;;24.52;15.77;;;;;;;;;;4332332;33;20621;-78
2021/09/08 10:08:50;;;;;;;24.48;15.50;;;;;;;;;;4346528;33;20135;-83
2021/09/08 10:11:34;;;;;;;22.37;14.85;;;;;;;;;;4345899;33;20138;-84
2021/09/08 10:14:03;;;;;;;22.13;14.55;;;;;;;;;;4345744;33;20207;-83
2021/09/08 10:16:29;;;;;;;19.90;13.93;;;;;;;;;;4345884;33;20124;-83
2021/09/08 10:18:56;;;;;;;19.95;13.88;;;;;;;;;;4345887;33;20295;-83
2021/09/08 10:21:22;;;;;;;19.05;14.18;;;;;;;;;;4345850;33;20678;-84
2021/09/08 10:24:03;;;;;;;23.25;15.30;;;;;;;;;;4332558;33;20152;-84
2021/09/08 10:26:30;;;;;;;20.15;14.23;;;;;;;;;;4345648;33;20128;-84
2021/09/08 10:29:04;;;;;;;23.25;14.18;;;;;;;;;;4346941;33;20148;-85
2021/09/08 10:31:33;;;;;;;19.52;13.18;;;;;;;;;;4333400;33;20517;-85
2021/09/08 10:33:58;;;;;;;18.70;13.05;;;;;;;;;;4333693;33;20156;-85
2021/09/08 10:36:24;;;;;;;19.87;12.20;;;;;;;;;;4346997;33;20228;-86
2021/09/08 10:39:08;;;;;;;17.55;12.80;;;;;;;;;;4346994;33;20128;-85
2021/09/08 10:41:41;;;;;;;21.27;12.75;;;;;;;;;;4346976;33;20131;-86
2021/09/08 10:44:06;;;;;;;19.58;12.93;;;;;;;;;;4333235;33;20179;-86
2021/09/08 10:46:51;;;;;;;21.10;13.20;;;;;;;;;;4333701;33;20191;-81
2021/09/08 10:49:35;;;;;;;19.25;13.23;;;;;;;;;;4345508;33;20155;-84
2021/09/08 10:52:00;;;;;;;17.75;12.55;;;;;;;;;;4346045;33;20139;-84
2021/09/08 10:54:25;;;;;;;17.20;11.93;;;;;;;;;;4346008;33;20139;-83
2021/09/08 10:56:52;;;;;;;19.08;11.70;;;;;;;;;;4345939;33;20186;-83
2021/09/08 10:59:18;;;;;;;14.75;9.85;;;;;;;;;;4346143;33;20158;-84
2021/09/08 11:01:43;;;;;;;18.35;11.30;;;;;;;;;;4345195;33;20132;-85
2021/09/08 11:04:13;;;;;;;24.27;10.05;;;;;;;;;;4345363;33;20140;-84
2021/09/08 11:06:45;;;;;;;19.42;12.02;;;;;;;;;;4345388;33;20132;-83
2021/09/08 11:09:12;;;;;;;18.27;10.52;;;;;;;;;;4345018;33;20132;-84
2021/09/08 11:11:57;;;;;;;13.05;10.23;;;;;;;;;;4345122;33;20135;-83
2021/09/08 11:14:42;;;;;;;14.63;10.00;;;;;;;;;;4345547;33;20213;-84
2021/09/08 11:17:10;;;;;;;11.40;9.55;;;;;;;;;;4345379;33;20600;-84
2021/09/08 11:19:36;;;;;;;14.98;10.70;;;;;;;;;;4345395;33;20136;-85
2021/09/08 11:22:01;;;;;;;26.87;11.88;;;;;;;;;;4345266;33;20155;-80
2021/09/08 11:24:28;;;;;;;18.27;10.60;;;;;;;;;;4331686;33;20182;-83
2021/09/08 11:27:05;;;;;;;18.80;10.35;;;;;;;;;;4345309;33;20132;-84
2021/09/08 11:29:31;;;;;;;19.17;9.93;;;;;;;;;;4345503;33;20549;-84
2021/09/08 11:31:56;;;;;;;15.80;10.13;;;;;;;;;;4347969;33;20162;-84
2021/09/08 11:34:25;;;;;;;15.00;9.40;;;;;;;;;;4348050;33;20159;-84
2021/09/08 11:36:52;;;;;;;12.32;9.65;;;;;;;;;;4347590;33;20136;-84
2021/09/08 11:39:17;;;;;;;9.95;8.35;;;;;;;;;;4334582;33;20153;-84
2021/09/08 11:41:55;;;;;;;35.28;9.90;;;;;;;;;;4347793;33;20162;-84
2021/09/08 11:44:20;;;;;;;12.30;7.90;;;;;;;;;;4347340;33;20139;-84
2021/09/08 11:46:46;;;;;;;13.77;8.02;;;;;;;;;;4334451;33;20437;-83
2021/09/08 11:49:11;;;;;;;12.55;7.25;;;;;;;;;;4333817;33;20199;-82
2021/09/08 11:51:40;;;;;;;10.23;7.47;;;;;;;;;;4347823;33;20161;-83
2021/09/08 11:54:08;;;;;;;12.10;8.48;;;;;;;;;;4347369;33;20162;-83
2021/09/08 11:56:33;;;;;;;12.70;7.40;;;;;;;;;;4347454;33;20136;-84
2021/09/08 11:59:03;;;;;;;12.65;7.25;;;;;;;;;;4347860;33;20155;-85
2021/09/08 12:01:37;;;;;;;10.20;7.35;;;;;;;;;;4333917;33;20210;-84
2021/09/08 12:04:03;;;;;;;10.73;7.22;;;;;;;;;;4347611;33;20159;-84
2021/09/08 12:06:29;;;;;;;10.98;7.15;;;;;;;;;;4347488;33;20136;-84
2021/09/08 12:09:11;;;;;;;8.82;7.55;;;;;;;;;;4348120;33;20140;-83
2021/09/08 12:11:38;;;;;;;12.10;7.95;;;;;;;;;;4347151;33;20532;-84
2021/09/08 12:14:23;;;;;;;11.05;8.23;;;;;;;;;;4335032;33;20170;-83
2021/09/08 12:16:53;;;;;;;9.75;7.47;;;;;;;;;;4346994;33;20132;-83
2021/09/08 12:19:24;;;;;;;11.80;8.73;;;;;;;;;;4333605;33;20159;-84
2021/09/08 12:21:52;;;;;;;13.90;7.93;;;;;;;;;;4347696;33;20131;-84
2021/09/08 12:24:22;;;;;;;11.50;7.78;;;;;;;;;;4346950;33;20135;-84
2021/09/08 12:26:47;;;;;;;10.75;7.95;;;;;;;;;;4347113;33;20140;-83
2021/09/08 12:29:12;;;;;;;9.63;6.82;;;;;;;;;;4346682;33;20128;-86
2021/09/08 12:31:56;;;;;;;8.80;5.90;;;;;;;;;;4346799;33;20162;-82
2021/09/08 12:34:21;;;;;;;10.73;6.32;;;;;;;;;;4333281;33;20456;-80
2021/09/08 12:36:47;;;;;;;15.70;7.30;;;;;;;;;;4347243;33;20182;-84
2021/09/08 12:39:17;;;;;;;9.30;6.60;;;;;;;;;;4347197;33;20167;-84
2021/09/08 12:41:58;;;;;;;8.02;6.50;;;;;;;;;;4345700;33;20163;-80
2021/09/08 12:44:27;;;;;;;8.52;7.00;;;;;;;;;;4333390;33;20556;-83
2021/09/08 12:46:52;;;;;;;9.77;6.97;;;;;;;;;;4347043;33;20164;-84
2021/09/08 12:49:26;;;;;;;11.35;7.45;;;;;;;;;;4346820;33;20174;-84
2021/09/08 12:51:52;;;;;;;10.85;7.65;;;;;;;;;;4346825;33;20170;-83
2021/09/08 12:54:18;;;;;;;10.48;7.20;;;;;;;;;;4346689;33;20147;-84
2021/09/08 12:56:45;;;;;;;8.90;7.25;;;;;;;;;;4334020;33;20592;-82
2021/09/08 12:59:11;;;;;;;8.73;7.78;;;;;;;;;;4332860;33;20509;-83
2021/09/08 13:01:36;;;;;;;9.23;7.60;;;;;;;;;;4333574;33;20222;-84
2021/09/08 13:04:01;;;;;;;9.25;7.43;;;;;;;;;;4346264;33;20242;-80
2021/09/08 13:06:27;;;;;;;11.98;8.77;;;;;;;;;;4346907;33;20136;-83
2021/09/08 13:08:52;;;;;;;11.52;9.10;;;;;;;;;;4346613;33;20132;-83
2021/09/08 13:11:18;;;;;;;10.02;8.10;;;;;;;;;;4346217;33;20307;-83
2021/09/08 13:13:43;;;;;;;8.75;7.80;;;;;;;;;;4346279;33;20174;-83
2021/09/08 13:16:08;;;;;;;14.68;8.88;;;;;;;;;;4346189;33;20131;-82
2021/09/08 13:18:37;;;;;;;12.70;8.93;;;;;;;;;;4346901;33;20181;-83
2021/09/08 13:21:02;;;;;;;11.27;8.88;;;;;;;;;;4346407;33;20162;-82
2021/09/08 13:23:27;;;;;;;12.43;8.90;;;;;;;;;;4346020;33;20461;-82
2021/09/08 13:25:53;;;;;;;11.60;9.03;;;;;;;;;;4321664;33;20611;-82
2021/09/08 13:28:18;;;;;;;11.12;7.90;;;;;;;;;;4347072;33;20259;-81
2021/09/08 13:30:43;;;;;;;12.65;7.72;;;;;;;;;;4346152;33;20139;-81
2021/09/08 13:33:09;;;;;;;12.00;9.35;;;;;;;;;;4345793;33;20131;-82
2021/09/08 13:35:34;;;;;;;11.05;9.93;;;;;;;;;;4345803;33;20144;-81
2021/09/08 13:38:01;;;;;;;19.17;9.38;;;;;;;;;;4345923;33;20128;-83
2021/09/08 13:40:26;;;;;;;10.38;8.38;;;;;;;;;;4345873;33;20127;-80
2021/09/08 13:42:51;;;;;;;9.80;7.80;;;;;;;;;;4345786;33;20193;-81
2021/09/08 13:45:16;;;;;;;14.70;9.40;;;;;;;;;;4345991;33;20237;-83
2021/09/08 13:47:42;;;;;;;12.55;8.45;;;;;;;;;;4345943;33;20193;-82
2021/09/08 13:50:07;;;;;;;11.32;9.45;;;;;;;;;;4346003;33;20522;-82
2021/09/08 13:52:33;;;;;;;12.70;8.73;;;;;;;;;;4345308;33;20140;-83
2021/09/08 13:55:00;;;;;;;9.65;8.07;;;;;;;;;;4346001;33;20135;-82
2021/09/08 13:57:25;;;;;;;8.02;7.20;;;;;;;;;;4345546;33;20588;-82
2021/09/08 13:59:50;;;;;;;9.80;8.33;;;;;;;;;;4345650;33;20127;-82
2021/09/08 14:02:16;;;;;;;9.40;8.07;;;;;;;;;;4347077;33;20134;-83
2021/09/08 14:04:41;;;;;;;10.47;8.30;;;;;;;;;;4336298;33;20187;-84
2021/09/08 14:07:06;;;;;;;12.77;8.70;;;;;;;;;;4347567;33;20228;-81
2021/09/08 14:09:31;;;;;;;11.02;8.73;;;;;;;;;;4347969;33;20186;-83
2021/09/08 14:11:57;;;;;;;14.50;9.47;;;;;;;;;;4346473;33;20166;-83
2021/09/08 14:14:22;;;;;;;9.38;8.25;;;;;;;;;;4346101;33;20271;-84
2021/09/08 14:16:48;;;;;;;15.23;10.35;;;;;;;;;;4345903;33;20154;-82
2021/09/08 14:19:13;;;;;;;16.20;9.55;;;;;;;;;;4346675;33;20128;-81
2021/09/08 14:21:39;;;;;;;12.65;8.55;;;;;;;;;;4345391;33;20486;-83
2021/09/08 14:24:04;;;;;;;12.75;9.50;;;;;;;;;;4345521;33;20162;-81